sensor_id;sensor_type;location;lat;lon;timestamp;pressure;altitude;pressure_sealevel;temperature;humidity
1926;BME280;964;42.606;23.588;2022-12-07T00:00:49;94485.88;;;19.57;35.64
1926;BME280;964;42.606;23.588;2022-12-07T00:03:16;94473.63;;;19.79;35.78
1926;BME280;964;42.606;23.588;2022-12-07T00:05:42;94477.56;;;19.98;35.44
1926;BME280;964;42.606;23.588;2022-12-07T00:08:09;94480.75;;;20.13;35.25
1926;BME280;964;42.606;23.588;2022-12-07T00:10:37;94474.56;;;20.16;35.41
1926;BME280;964;42.606;23.588;2022-12-07T00:13:04;94483.91;;;20.07;35.49
1926;BME280;964;42.606;23.588;2022-12-07T00:15:30;94471.34;;;20.01;35.77
1926;BME280;964;42.606;23.588;2022-12-07T00:17:59;94486.94;;;19.09;37.34
1926;BME280;964;42.606;23.588;2022-12-07T00:20:26;94487.69;;;19.64;36.54
1926;BME280;964;42.606;23.588;2022-12-07T00:22:53;94480.41;;;19.64;36.49
1926;BME280;964;42.606;23.588;2022-12-07T00:25:20;94466.63;;;19.85;36.09
1926;BME280;964;42.606;23.588;2022-12-07T00:27:48;94469.50;;;20.41;35.35
1926;BME280;964;42.606;23.588;2022-12-07T00:30:15;94467.88;;;20.47;35.30
1926;BME280;964;42.606;23.588;2022-12-07T00:32:41;94475.31;;;20.16;35.63
1926;BME280;964;42.606;23.588;2022-12-07T00:35:08;94469.22;;;20.12;35.59
1926;BME280;964;42.606;23.588;2022-12-07T00:37:35;94475.63;;;20.22;35.62
1926;BME280;964;42.606;23.588;2022-12-07T00:40:02;94472.22;;;20.18;35.73
1926;BME280;964;42.606;23.588;2022-12-07T00:42:29;94468.34;;;20.19;35.74
1926;BME280;964;42.606;23.588;2022-12-07T00:44:57;94475.94;;;20.24;35.75
1926;BME280;964;42.606;23.588;2022-12-07T00:47:23;94477.81;;;19.03;37.68
1926;BME280;964;42.606;23.588;2022-12-07T00:49:50;94475.31;;;20.16;35.88
1926;BME280;964;42.606;23.588;2022-12-07T00:52:17;94475.31;;;20.16;35.72
1926;BME280;964;42.606;23.588;2022-12-07T00:54:43;94472.31;;;20.34;35.30
1926;BME280;964;42.606;23.588;2022-12-07T00:57:10;94468.97;;;20.06;35.90
1926;BME280;964;42.606;23.588;2022-12-07T00:59:37;94462.94;;;19.76;36.28
1926;BME280;964;42.606;23.588;2022-12-07T01:02:05;94459.06;;;20.00;36.23
1926;BME280;964;42.606;23.588;2022-12-07T01:04:33;94464.16;;;19.94;36.46
1926;BME280;964;42.606;23.588;2022-12-07T01:07:00;94468.59;;;19.58;37.15
1926;BME280;964;42.606;23.588;2022-12-07T01:09:27;94467.25;;;19.46;37.43
1926;BME280;964;42.606;23.588;2022-12-07T01:11:53;94458.78;;;19.94;36.36
1926;BME280;964;42.606;23.588;2022-12-07T01:14:20;94459.94;;;20.17;35.78
1926;BME280;964;42.606;23.588;2022-12-07T01:16:47;94459.09;;;20.20;35.78
1926;BME280;964;42.606;23.588;2022-12-07T01:19:15;94450.47;;;20.32;35.52
1926;BME280;964;42.606;23.588;2022-12-07T01:21:41;94450.25;;;19.99;36.00
1926;BME280;964;42.606;23.588;2022-12-07T01:24:10;94444.66;;;19.67;36.68
1926;BME280;964;42.606;23.588;2022-12-07T01:26:38;94445.34;;;19.48;36.97
1926;BME280;964;42.606;23.588;2022-12-07T01:29:05;94450.25;;;19.53;36.90
1926;BME280;964;42.606;23.588;2022-12-07T01:31:32;94443.25;;;19.59;36.68
1926;BME280;964;42.606;23.588;2022-12-07T01:33:59;94439.69;;;19.39;37.25
1926;BME280;964;42.606;23.588;2022-12-07T01:36:29;94441.94;;;19.44;37.03
1926;BME280;964;42.606;23.588;2022-12-07T01:38:57;94434.38;;;19.85;36.69
1926;BME280;964;42.606;23.588;2022-12-07T01:41:26;94453.75;;;19.96;36.44
1926;BME280;964;42.606;23.588;2022-12-07T01:44:12;94454.13;;;19.52;37.11
1926;BME280;964;42.606;23.588;2022-12-07T01:46:41;94445.91;;;20.29;36.01
1926;BME280;964;42.606;23.588;2022-12-07T01:49:10;94444.00;;;20.06;36.36
1926;BME280;964;42.606;23.588;2022-12-07T01:51:40;94438.88;;;19.69;36.97
1926;BME280;964;42.606;23.588;2022-12-07T01:54:09;94439.97;;;19.94;36.27
1926;BME280;964;42.606;23.588;2022-12-07T01:56:39;94451.63;;;20.07;36.24
1926;BME280;964;42.606;23.588;2022-12-07T01:59:08;94444.88;;;19.76;36.47
1926;BME280;964;42.606;23.588;2022-12-07T02:01:35;94439.38;;;19.60;36.65
1926;BME280;964;42.606;23.588;2022-12-07T02:04:02;94438.34;;;19.77;36.36
1926;BME280;964;42.606;23.588;2022-12-07T02:06:29;94434.91;;;19.96;36.16
1926;BME280;964;42.606;23.588;2022-12-07T02:08:57;94436.25;;;19.88;36.10
1926;BME280;964;42.606;23.588;2022-12-07T02:11:24;94436.47;;;19.74;36.51
1926;BME280;964;42.606;23.588;2022-12-07T02:13:51;94431.91;;;19.71;36.68
1926;BME280;964;42.606;23.588;2022-12-07T02:16:26;94428.63;;;19.83;36.38
1926;BME280;964;42.606;23.588;2022-12-07T02:19:24;94433.53;;;19.42;37.10
1926;BME280;964;42.606;23.588;2022-12-07T02:21:59;94430.63;;;19.29;37.48
1926;BME280;964;42.606;23.588;2022-12-07T02:24:48;94424.75;;;19.38;37.20
1926;BME280;964;42.606;23.588;2022-12-07T02:27:36;94419.41;;;19.61;36.83
1926;BME280;964;42.606;23.588;2022-12-07T02:30:07;94421.88;;;19.52;37.11
1926;BME280;964;42.606;23.588;2022-12-07T02:32:42;94416.13;;;19.73;36.87
1926;BME280;964;42.606;23.588;2022-12-07T02:35:12;94421.72;;;20.05;36.21
1926;BME280;964;42.606;23.588;2022-12-07T02:37:47;94416.75;;;20.24;36.09
1926;BME280;964;42.606;23.588;2022-12-07T02:40:18;94422.88;;;20.28;35.71
1926;BME280;964;42.606;23.588;2022-12-07T02:42:49;94425.81;;;20.33;35.52
1926;BME280;964;42.606;23.588;2022-12-07T02:45:21;94416.06;;;20.20;35.93
1926;BME280;964;42.606;23.588;2022-12-07T02:47:51;94409.50;;;20.01;36.02
1926;BME280;964;42.606;23.588;2022-12-07T02:50:20;94417.72;;;19.71;36.55
1926;BME280;964;42.606;23.588;2022-12-07T02:52:47;94410.13;;;20.08;36.04
1926;BME280;964;42.606;23.588;2022-12-07T02:55:15;94396.66;;;20.32;35.77
1926;BME280;964;42.606;23.588;2022-12-07T02:58:01;94408.66;;;19.84;36.23
1926;BME280;964;42.606;23.588;2022-12-07T03:00:40;94409.22;;;19.95;36.34
1926;BME280;964;42.606;23.588;2022-12-07T03:03:13;94413.84;;;20.15;36.03
1926;BME280;964;42.606;23.588;2022-12-07T03:05:50;94407.69;;;19.94;36.54
1926;BME280;964;42.606;23.588;2022-12-07T03:08:24;94417.91;;;20.23;35.98
1926;BME280;964;42.606;23.588;2022-12-07T03:10:57;94413.47;;;20.36;36.04
1926;BME280;964;42.606;23.588;2022-12-07T03:13:28;94426.69;;;20.27;35.90
1926;BME280;964;42.606;23.588;2022-12-07T03:16:02;94407.16;;;20.23;36.08
1926;BME280;964;42.606;23.588;2022-12-07T03:18:34;94397.59;;;20.41;35.54
1926;BME280;964;42.606;23.588;2022-12-07T03:21:05;94394.28;;;20.53;35.27
1926;BME280;964;42.606;23.588;2022-12-07T03:23:34;94397.78;;;20.70;35.05
1926;BME280;964;42.606;23.588;2022-12-07T03:26:03;94397.75;;;20.54;35.20
1926;BME280;964;42.606;23.588;2022-12-07T03:28:34;94407.22;;;19.99;36.18
1926;BME280;964;42.606;23.588;2022-12-07T03:31:11;94407.03;;;20.10;35.93
1926;BME280;964;42.606;23.588;2022-12-07T03:33:43;94406.91;;;20.17;36.08
1926;BME280;964;42.606;23.588;2022-12-07T03:36:17;94397.41;;;19.89;36.18
1926;BME280;964;42.606;23.588;2022-12-07T03:38:48;94401.28;;;19.88;36.23
1926;BME280;964;42.606;23.588;2022-12-07T03:41:19;94390.13;;;19.67;36.61
1926;BME280;964;42.606;23.588;2022-12-07T03:43:49;94393.97;;;20.08;35.78
1926;BME280;964;42.606;23.588;2022-12-07T03:46:21;94390.19;;;19.63;36.87
1926;BME280;964;42.606;23.588;2022-12-07T03:48:55;94386.44;;;19.34;37.12
1926;BME280;964;42.606;23.588;2022-12-07T03:51:28;94380.75;;;19.28;36.94
1926;BME280;964;42.606;23.588;2022-12-07T03:54:02;94382.84;;;19.17;37.50
1926;BME280;964;42.606;23.588;2022-12-07T03:56:32;94377.78;;;19.69;36.69
1926;BME280;964;42.606;23.588;2022-12-07T03:58:59;94376.94;;;19.95;36.04
1926;BME280;964;42.606;23.588;2022-12-07T04:01:28;94370.03;;;19.94;35.86
1926;BME280;964;42.606;23.588;2022-12-07T04:03:54;94377.16;;;20.04;35.73
1926;BME280;964;42.606;23.588;2022-12-07T04:06:21;94380.59;;;19.85;36.09
1926;BME280;964;42.606;23.588;2022-12-07T04:08:47;94385.16;;;19.88;35.99
1926;BME280;964;42.606;23.588;2022-12-07T04:11:14;94396.00;;;19.35;36.75
1926;BME280;964;42.606;23.588;2022-12-07T04:13:41;94385.69;;;19.56;36.52
1926;BME280;964;42.606;23.588;2022-12-07T04:16:25;94387.63;;;19.56;36.40
1926;BME280;964;42.606;23.588;2022-12-07T04:18:53;94385.84;;;19.46;36.49
1926;BME280;964;42.606;23.588;2022-12-07T04:21:19;94394.56;;;19.03;36.44
1926;BME280;964;42.606;23.588;2022-12-07T04:23:46;94391.72;;;19.14;36.58
1926;BME280;964;42.606;23.588;2022-12-07T04:26:13;94390.97;;;19.37;35.95
1926;BME280;964;42.606;23.588;2022-12-07T04:28:40;94394.13;;;19.08;37.08
1926;BME280;964;42.606;23.588;2022-12-07T04:31:06;94394.28;;;19.48;36.08
1926;BME280;964;42.606;23.588;2022-12-07T04:33:33;94392.53;;;19.11;36.46
1926;BME280;964;42.606;23.588;2022-12-07T04:36:01;94389.84;;;18.84;37.10
1926;BME280;964;42.606;23.588;2022-12-07T04:38:27;94397.44;;;18.89;37.64
1926;BME280;964;42.606;23.588;2022-12-07T04:40:54;94398.38;;;18.79;37.46
1926;BME280;964;42.606;23.588;2022-12-07T04:43:21;94397.22;;;18.77;37.98
1926;BME280;964;42.606;23.588;2022-12-07T04:45:48;94395.75;;;19.26;37.22
1926;BME280;964;42.606;23.588;2022-12-07T04:48:15;94402.00;;;18.92;37.78
1926;BME280;964;42.606;23.588;2022-12-07T04:50:42;94404.22;;;19.24;37.14
1926;BME280;964;42.606;23.588;2022-12-07T04:53:10;94405.84;;;18.91;37.14
1926;BME280;964;42.606;23.588;2022-12-07T04:55:37;94405.63;;;19.05;37.54
1926;BME280;964;42.606;23.588;2022-12-07T04:58:03;94407.28;;;18.99;37.54
1926;BME280;964;42.606;23.588;2022-12-07T05:00:30;94413.91;;;19.45;36.29
1926;BME280;964;42.606;23.588;2022-12-07T05:02:57;94402.81;;;18.89;37.94
1926;BME280;964;42.606;23.588;2022-12-07T05:05:23;94407.78;;;19.18;37.28
1926;BME280;964;42.606;23.588;2022-12-07T05:07:50;94404.16;;;19.28;36.92
1926;BME280;964;42.606;23.588;2022-12-07T05:10:19;94404.25;;;18.97;37.02
1926;BME280;964;42.606;23.588;2022-12-07T05:12:45;94402.63;;;19.03;36.34
1926;BME280;964;42.606;23.588;2022-12-07T05:15:13;94406.91;;;19.24;36.04
1926;BME280;964;42.606;23.588;2022-12-07T05:17:40;94396.41;;;19.33;36.02
1926;BME280;964;42.606;23.588;2022-12-07T05:20:07;94407.81;;;18.27;37.18
1926;BME280;964;42.606;23.588;2022-12-07T05:22:34;94417.38;;;18.28;37.27
1926;BME280;964;42.606;23.588;2022-12-07T05:25:01;94408.47;;;18.68;36.62
1926;BME280;964;42.606;23.588;2022-12-07T05:27:29;94403.41;;;18.40;37.49
1926;BME280;964;42.606;23.588;2022-12-07T05:29:56;94395.03;;;18.38;37.33
1926;BME280;964;42.606;23.588;2022-12-07T05:32:22;94392.22;;;18.79;36.37
1926;BME280;964;42.606;23.588;2022-12-07T05:34:49;94392.53;;;18.84;36.67
1926;BME280;964;42.606;23.588;2022-12-07T05:37:16;94396.53;;;18.99;36.41
1926;BME280;964;42.606;23.588;2022-12-07T05:39:42;94386.94;;;18.98;36.00
1926;BME280;964;42.606;23.588;2022-12-07T05:42:10;94393.75;;;19.06;36.41
1926;BME280;964;42.606;23.588;2022-12-07T05:44:41;94395.91;;;18.88;35.64
1926;BME280;964;42.606;23.588;2022-12-07T05:47:09;94400.06;;;18.66;37.00
1926;BME280;964;42.606;23.588;2022-12-07T05:49:35;94400.47;;;18.91;36.48
1926;BME280;964;42.606;23.588;2022-12-07T05:52:02;94408.19;;;18.89;36.87
1926;BME280;964;42.606;23.588;2022-12-07T05:54:29;94410.41;;;18.68;37.02
1926;BME280;964;42.606;23.588;2022-12-07T05:56:56;94409.81;;;18.83;36.26
1926;BME280;964;42.606;23.588;2022-12-07T05:59:23;94398.50;;;18.95;35.76
1926;BME280;964;42.606;23.588;2022-12-07T06:01:51;94395.31;;;18.77;37.02
1926;BME280;964;42.606;23.588;2022-12-07T06:04:18;94401.91;;;18.39;37.33
1926;BME280;964;42.606;23.588;2022-12-07T06:06:45;94399.44;;;18.55;37.22
1926;BME280;964;42.606;23.588;2022-12-07T06:09:12;94395.69;;;18.79;37.56
1926;BME280;964;42.606;23.588;2022-12-07T06:11:39;94392.44;;;18.91;37.08
1926;BME280;964;42.606;23.588;2022-12-07T06:14:24;94397.97;;;19.31;36.58
1926;BME280;964;42.606;23.588;2022-12-07T06:16:52;94400.25;;;18.82;37.15
1926;BME280;964;42.606;23.588;2022-12-07T06:19:19;94399.59;;;19.01;36.98
1926;BME280;964;42.606;23.588;2022-12-07T06:21:46;94397.97;;;19.31;36.43
1926;BME280;964;42.606;23.588;2022-12-07T06:24:14;94388.31;;;19.60;36.48
1926;BME280;964;42.606;23.588;2022-12-07T06:26:41;94390.47;;;19.69;36.07
1926;BME280;964;42.606;23.588;2022-12-07T06:29:08;94392.13;;;19.63;36.31
1926;BME280;964;42.606;23.588;2022-12-07T06:31:36;94393.72;;;19.33;36.52
1926;BME280;964;42.606;23.588;2022-12-07T06:34:05;94403.75;;;18.11;38.45
1926;BME280;964;42.606;23.588;2022-12-07T06:36:32;94397.59;;;18.79;37.74
1926;BME280;964;42.606;23.588;2022-12-07T06:38:59;94396.72;;;19.62;36.46
1926;BME280;964;42.606;23.588;2022-12-07T06:41:26;94393.41;;;19.97;36.07
1926;BME280;964;42.606;23.588;2022-12-07T06:43:53;94392.00;;;19.89;35.75
1926;BME280;964;42.606;23.588;2022-12-07T06:46:20;94403.28;;;20.47;35.41
1926;BME280;964;42.606;23.588;2022-12-07T06:48:46;94400.22;;;20.45;35.08
1926;BME280;964;42.606;23.588;2022-12-07T06:51:14;94405.31;;;20.59;35.25
1926;BME280;964;42.606;23.588;2022-12-07T06:53:41;94410.91;;;20.68;35.28
1926;BME280;964;42.606;23.588;2022-12-07T06:56:08;94406.97;;;20.53;35.42
1926;BME280;964;42.606;23.588;2022-12-07T06:58:35;94404.28;;;20.73;34.90
1926;BME280;964;42.606;23.588;2022-12-07T07:01:01;94406.91;;;20.57;35.47
1926;BME280;964;42.606;23.588;2022-12-07T07:03:28;94402.44;;;20.50;35.13
1926;BME280;964;42.606;23.588;2022-12-07T07:05:55;94401.66;;;20.69;35.00
1926;BME280;964;42.606;23.588;2022-12-07T07:08:23;94402.69;;;20.75;34.90
1926;BME280;964;42.606;23.588;2022-12-07T07:10:50;94393.59;;;20.30;35.32
1926;BME280;964;42.606;23.588;2022-12-07T07:13:17;94410.84;;;20.88;34.74
1926;BME280;964;42.606;23.588;2022-12-07T07:15:44;94392.38;;;21.06;34.61
1926;BME280;964;42.606;23.588;2022-12-07T07:18:11;94391.50;;;21.29;34.68
1926;BME280;964;42.606;23.588;2022-12-07T07:20:38;94395.88;;;21.39;34.42
1926;BME280;964;42.606;23.588;2022-12-07T07:23:05;94407.16;;;21.50;34.33
1926;BME280;964;42.606;23.588;2022-12-07T07:25:33;94404.63;;;21.59;34.69
1926;BME280;964;42.606;23.588;2022-12-07T07:28:00;94405.31;;;21.63;34.25
1926;BME280;964;42.606;23.588;2022-12-07T07:30:27;94412.53;;;21.82;34.34
1926;BME280;964;42.606;23.588;2022-12-07T07:32:56;94403.38;;;21.64;33.84
1926;BME280;964;42.606;23.588;2022-12-07T07:35:23;94413.72;;;21.33;34.49
1926;BME280;964;42.606;23.588;2022-12-07T07:37:49;94416.69;;;21.38;34.26
1926;BME280;964;42.606;23.588;2022-12-07T07:40:16;94409.19;;;21.78;33.54
1926;BME280;964;42.606;23.588;2022-12-07T07:42:47;94410.34;;;21.93;33.63
1926;BME280;964;42.606;23.588;2022-12-07T07:45:13;94407.84;;;22.15;33.43
1926;BME280;964;42.606;23.588;2022-12-07T07:47:40;94412.34;;;21.89;33.43
1926;BME280;964;42.606;23.588;2022-12-07T07:50:08;94418.38;;;22.26;32.90
1926;BME280;964;42.606;23.588;2022-12-07T07:52:35;94422.06;;;22.32;33.54
1926;BME280;964;42.606;23.588;2022-12-07T07:55:02;94417.63;;;22.25;33.17
1926;BME280;964;42.606;23.588;2022-12-07T07:57:29;94415.22;;;22.56;32.41
1926;BME280;964;42.606;23.588;2022-12-07T07:59:57;94410.56;;;22.85;32.81
1926;BME280;964;42.606;23.588;2022-12-07T08:02:24;94406.00;;;22.82;31.84
1926;BME280;964;42.606;23.588;2022-12-07T08:04:50;94400.63;;;23.08;31.68
1926;BME280;964;42.606;23.588;2022-12-07T08:07:17;94394.34;;;23.36;32.05
1926;BME280;964;42.606;23.588;2022-12-07T08:09:44;94401.78;;;23.32;32.13
1926;BME280;964;42.606;23.588;2022-12-07T08:12:10;94399.75;;;23.36;31.42
1926;BME280;964;42.606;23.588;2022-12-07T08:14:37;94396.72;;;23.59;31.72
1926;BME280;964;42.606;23.588;2022-12-07T08:17:05;94397.41;;;23.85;30.80
1926;BME280;964;42.606;23.588;2022-12-07T08:19:32;94400.25;;;23.69;30.73
1926;BME280;964;42.606;23.588;2022-12-07T08:21:59;94400.84;;;23.98;31.16
1926;BME280;964;42.606;23.588;2022-12-07T08:24:26;94397.84;;;25.05;30.18
1926;BME280;964;42.606;23.588;2022-12-07T08:26:53;94394.69;;;26.22;28.09
1926;BME280;964;42.606;23.588;2022-12-07T08:29:20;94397.22;;;26.53;27.37
1926;BME280;964;42.606;23.588;2022-12-07T08:31:46;94390.47;;;27.09;27.25
1926;BME280;964;42.606;23.588;2022-12-07T08:34:15;94387.50;;;27.63;26.48
1926;BME280;964;42.606;23.588;2022-12-07T08:36:41;94384.16;;;27.36;26.74
1926;BME280;964;42.606;23.588;2022-12-07T08:39:08;94384.56;;;27.76;26.28
1926;BME280;964;42.606;23.588;2022-12-07T08:41:35;94371.13;;;27.49;26.13
1926;BME280;964;42.606;23.588;2022-12-07T08:44:02;94383.34;;;26.15;27.38
1926;BME280;964;42.606;23.588;2022-12-07T08:46:32;94387.97;;;25.78;27.96
1926;BME280;964;42.606;23.588;2022-12-07T08:49:04;94383.34;;;25.38;28.72
1926;BME280;964;42.606;23.588;2022-12-07T08:51:33;94388.16;;;24.95;29.28
1926;BME280;964;42.606;23.588;2022-12-07T08:54:02;94389.78;;;24.70;29.90
1926;BME280;964;42.606;23.588;2022-12-07T08:56:30;94379.69;;;24.93;29.78
1926;BME280;964;42.606;23.588;2022-12-07T08:58:57;94384.31;;;24.83;30.25
1926;BME280;964;42.606;23.588;2022-12-07T09:01:24;94375.78;;;24.94;29.79
1926;BME280;964;42.606;23.588;2022-12-07T09:03:51;94372.53;;;24.77;29.87
1926;BME280;964;42.606;23.588;2022-12-07T09:06:17;94369.94;;;25.44;29.82
1926;BME280;964;42.606;23.588;2022-12-07T09:08:50;94355.41;;;26.51;28.37
1926;BME280;964;42.606;23.588;2022-12-07T09:11:17;94364.25;;;26.78;27.23
1926;BME280;964;42.606;23.588;2022-12-07T09:13:44;94365.75;;;26.79;26.76
1926;BME280;964;42.606;23.588;2022-12-07T09:16:11;94363.41;;;26.54;27.45
1926;BME280;964;42.606;23.588;2022-12-07T09:18:37;94364.31;;;26.42;27.65
1926;BME280;964;42.606;23.588;2022-12-07T09:21:04;94361.59;;;25.88;28.26
1926;BME280;964;42.606;23.588;2022-12-07T09:23:31;94351.31;;;26.46;27.76
1926;BME280;964;42.606;23.588;2022-12-07T09:26:00;94331.38;;;28.28;25.81
1926;BME280;964;42.606;23.588;2022-12-07T09:28:27;94336.63;;;29.05;25.66
1926;BME280;964;42.606;23.588;2022-12-07T09:30:53;94324.25;;;31.28;23.39
1926;BME280;964;42.606;23.588;2022-12-07T09:33:20;94301.25;;;32.16;21.67
1926;BME280;964;42.606;23.588;2022-12-07T09:35:47;94318.91;;;29.85;23.43
1926;BME280;964;42.606;23.588;2022-12-07T09:38:15;94342.19;;;27.99;25.03
1926;BME280;964;42.606;23.588;2022-12-07T09:40:42;94331.97;;;27.37;25.66
1926;BME280;964;42.606;23.588;2022-12-07T09:43:13;94340.56;;;26.70;26.68
1926;BME280;964;42.606;23.588;2022-12-07T09:45:41;94330.50;;;26.34;27.39
1926;BME280;964;42.606;23.588;2022-12-07T09:48:16;94344.44;;;26.18;27.47
1926;BME280;964;42.606;23.588;2022-12-07T09:50:44;94327.25;;;26.72;27.51
1926;BME280;964;42.606;23.588;2022-12-07T09:53:15;94318.56;;;27.01;27.13
1926;BME280;964;42.606;23.588;2022-12-07T09:55:43;94317.69;;;26.95;27.24
1926;BME280;964;42.606;23.588;2022-12-07T09:58:16;94314.59;;;26.60;27.83
1926;BME280;964;42.606;23.588;2022-12-07T10:00:45;94320.94;;;25.29;29.69
1926;BME280;964;42.606;23.588;2022-12-07T10:03:12;94308.78;;;26.34;28.02
1926;BME280;964;42.606;23.588;2022-12-07T10:05:41;94312.63;;;26.60;28.04
1926;BME280;964;42.606;23.588;2022-12-07T10:08:11;94294.75;;;27.19;27.30
1926;BME280;964;42.606;23.588;2022-12-07T10:10:38;94288.34;;;27.55;27.30
1926;BME280;964;42.606;23.588;2022-12-07T10:13:07;94292.38;;;27.36;27.19
1926;BME280;964;42.606;23.588;2022-12-07T10:15:48;94285.44;;;27.35;27.64
1926;BME280;964;42.606;23.588;2022-12-07T10:18:29;94282.75;;;27.26;27.44
1926;BME280;964;42.606;23.588;2022-12-07T10:21:05;94283.44;;;26.88;27.83
1926;BME280;964;42.606;23.588;2022-12-07T10:23:34;94284.19;;;26.79;28.28
1926;BME280;964;42.606;23.588;2022-12-07T10:26:19;94274.97;;;27.66;27.06
1926;BME280;964;42.606;23.588;2022-12-07T10:28:46;94274.59;;;27.73;27.52
1926;BME280;964;42.606;23.588;2022-12-07T10:31:17;94259.38;;;28.20;26.89
1926;BME280;964;42.606;23.588;2022-12-07T10:33:56;94267.28;;;28.47;26.80
1926;BME280;964;42.606;23.588;2022-12-07T10:36:25;94256.78;;;28.02;27.27
1926;BME280;964;42.606;23.588;2022-12-07T10:38:59;94251.25;;;27.82;27.31
1926;BME280;964;42.606;23.588;2022-12-07T10:41:26;94252.97;;;27.94;27.13
1926;BME280;964;42.606;23.588;2022-12-07T10:43:55;94252.97;;;27.55;27.25
1926;BME280;964;42.606;23.588;2022-12-07T10:47:03;94243.50;;;28.33;26.60
1926;BME280;964;42.606;23.588;2022-12-07T10:50:01;94222.53;;;28.68;26.46
1926;BME280;964;42.606;23.588;2022-12-07T10:52:40;94228.75;;;28.25;27.20
1926;BME280;964;42.606;23.588;2022-12-07T10:55:26;94220.38;;;29.48;25.56
1926;BME280;964;42.606;23.588;2022-12-07T10:58:17;94213.53;;;29.58;25.37
1926;BME280;964;42.606;23.588;2022-12-07T11:00:54;94213.59;;;29.03;26.20
1926;BME280;964;42.606;23.588;2022-12-07T11:03:37;94223.19;;;27.90;27.47
1926;BME280;964;42.606;23.588;2022-12-07T11:06:16;94222.09;;;27.11;28.98
1926;BME280;964;42.606;23.588;2022-12-07T11:09:06;94210.09;;;28.67;27.17
1926;BME280;964;42.606;23.588;2022-12-07T11:11:44;94214.13;;;29.88;26.03
1926;BME280;964;42.606;23.588;2022-12-07T11:14:19;94195.84;;;31.41;24.63
1926;BME280;964;42.606;23.588;2022-12-07T11:16:56;94191.59;;;32.27;23.11
1926;BME280;964;42.606;23.588;2022-12-07T11:19:34;94196.44;;;30.72;24.51
1926;BME280;964;42.606;23.588;2022-12-07T11:22:10;94202.75;;;29.95;25.27
1926;BME280;964;42.606;23.588;2022-12-07T11:24:46;94198.03;;;29.09;26.10
1926;BME280;964;42.606;23.588;2022-12-07T11:27:23;94203.84;;;29.16;26.35
1926;BME280;964;42.606;23.588;2022-12-07T11:30:08;94201.78;;;28.91;26.50
1926;BME280;964;42.606;23.588;2022-12-07T11:32:51;94203.38;;;28.04;27.41
1926;BME280;964;42.606;23.588;2022-12-07T11:35:29;94188.84;;;28.57;26.31
1926;BME280;964;42.606;23.588;2022-12-07T11:38:09;94189.09;;;28.24;26.88
1926;BME280;964;42.606;23.588;2022-12-07T11:40:38;94185.91;;;28.11;27.07
1926;BME280;964;42.606;23.588;2022-12-07T11:43:13;94183.84;;;28.20;27.45
1926;BME280;964;42.606;23.588;2022-12-07T11:45:43;94176.22;;;28.24;27.35
1926;BME280;964;42.606;23.588;2022-12-07T11:48:14;94171.81;;;27.83;27.59
1926;BME280;964;42.606;23.588;2022-12-07T11:50:48;94175.72;;;27.67;27.91
1926;BME280;964;42.606;23.588;2022-12-07T11:53:20;94173.56;;;27.33;28.60
1926;BME280;964;42.606;23.588;2022-12-07T11:55:51;94165.22;;;27.60;27.94
1926;BME280;964;42.606;23.588;2022-12-07T11:58:44;94156.56;;;28.35;27.53
1926;BME280;964;42.606;23.588;2022-12-07T12:01:26;94135.94;;;30.58;25.21
1926;BME280;964;42.606;23.588;2022-12-07T12:03:59;94137.19;;;31.05;24.35
1926;BME280;964;42.606;23.588;2022-12-07T12:06:30;94122.22;;;31.60;24.00
1926;BME280;964;42.606;23.588;2022-12-07T12:09:04;94118.75;;;31.76;23.90
1926;BME280;964;42.606;23.588;2022-12-07T12:14:42;94113.78;;;32.64;23.25
1926;BME280;964;42.606;23.588;2022-12-07T12:17:36;94104.47;;;34.47;22.04
1926;BME280;964;42.606;23.588;2022-12-07T12:20:16;94097.72;;;35.77;20.32
1926;BME280;964;42.606;23.588;2022-12-07T12:22:51;94106.78;;;32.63;22.57
1926;BME280;964;42.606;23.588;2022-12-07T12:25:21;94116.53;;;30.99;24.82
1926;BME280;964;42.606;23.588;2022-12-07T12:27:52;94135.94;;;29.70;25.98
1926;BME280;964;42.606;23.588;2022-12-07T12:30:29;94135.41;;;29.20;26.59
1926;BME280;964;42.606;23.588;2022-12-07T12:33:03;94126.63;;;28.55;27.40
1926;BME280;964;42.606;23.588;2022-12-07T12:35:32;94122.44;;;28.40;27.51
1926;BME280;964;42.606;23.588;2022-12-07T12:38:31;94118.44;;;27.91;28.03
1926;BME280;964;42.606;23.588;2022-12-07T12:40:59;94124.44;;;28.24;27.61
1926;BME280;964;42.606;23.588;2022-12-07T12:43:51;94118.97;;;28.39;27.64
1926;BME280;964;42.606;23.588;2022-12-07T12:46:49;94115.97;;;28.37;27.75
1926;BME280;964;42.606;23.588;2022-12-07T12:49:43;94117.19;;;28.36;27.62
1926;BME280;964;42.606;23.588;2022-12-07T12:58:28;94112.28;;;27.61;28.74
1926;BME280;964;42.606;23.588;2022-12-07T13:04:00;94118.22;;;26.50;30.63
1926;BME280;964;42.606;23.588;2022-12-07T13:06:34;94127.94;;;26.00;31.13
1926;BME280;964;42.606;23.588;2022-12-07T13:09:03;94117.69;;;26.37;30.55
1926;BME280;964;42.606;23.588;2022-12-07T13:11:34;94113.28;;;26.07;31.08
1926;BME280;964;42.606;23.588;2022-12-07T13:14:43;94120.47;;;26.75;30.18
1926;BME280;964;42.606;23.588;2022-12-07T13:20:48;94101.44;;;28.46;27.49
1926;BME280;964;42.606;23.588;2022-12-07T13:23:20;94107.22;;;28.33;27.79
1926;BME280;964;42.606;23.588;2022-12-07T13:25:55;94115.66;;;26.14;30.04
1926;BME280;964;42.606;23.588;2022-12-07T13:28:30;94118.06;;;25.70;30.70
1926;BME280;964;42.606;23.588;2022-12-07T13:31:04;94129.72;;;25.07;31.98
1926;BME280;964;42.606;23.588;2022-12-07T13:33:35;94120.50;;;25.59;31.17
1926;BME280;964;42.606;23.588;2022-12-07T13:36:03;94126.25;;;26.03;30.75
1926;BME280;964;42.606;23.588;2022-12-07T13:38:32;94131.22;;;25.53;31.35
1926;BME280;964;42.606;23.588;2022-12-07T13:41:02;94121.38;;;26.25;30.55
1926;BME280;964;42.606;23.588;2022-12-07T13:43:31;94116.47;;;26.38;30.44
1926;BME280;964;42.606;23.588;2022-12-07T13:45:59;94129.06;;;25.75;31.32
1926;BME280;964;42.606;23.588;2022-12-07T13:48:30;94113.19;;;25.83;31.13
1926;BME280;964;42.606;23.588;2022-12-07T13:51:00;94114.84;;;25.90;30.99
1926;BME280;964;42.606;23.588;2022-12-07T13:53:28;94118.47;;;25.87;30.72
1926;BME280;964;42.606;23.588;2022-12-07T13:55:56;94119.63;;;25.95;30.84